sensor_id;sensor_type;location;lat;lon;timestamp;P1;durP1;ratioP1;P2;durP2;ratioP2
18685;SDS011;9473;52.342;13.110;2023-04-19T00:00:35;9.88;;;3.13;;
18685;SDS011;9473;52.342;13.110;2023-04-19T00:03:04;6.90;;;3.15;;
18685;SDS011;9473;52.342;13.110;2023-04-19T00:05:31;6.50;;;2.35;;
18685;SDS011;9473;52.342;13.110;2023-04-19T00:07:58;6.30;;;2.80;;
18685;SDS011;9473;52.342;13.110;2023-04-19T00:10:25;4.82;;;2.70;;
18685;SDS011;9473;52.342;13.110;2023-04-19T00:12:52;7.00;;;2.78;;
18685;SDS011;9473;52.342;13.110;2023-04-19T00:15:19;5.25;;;2.42;;
18685;SDS011;9473;52.342;13.110;2023-04-19T00:17:46;6.50;;;2.65;;
18685;SDS011;9473;52.342;13.110;2023-04-19T00:20:14;7.75;;;2.65;;
18685;SDS011;9473;52.342;13.110;2023-04-19T00:22:41;7.60;;;2.88;;
18685;SDS011;9473;52.342;13.110;2023-04-19T00:25:08;6.95;;;2.63;;
18685;SDS011;9473;52.342;13.110;2023-04-19T00:27:35;7.78;;;2.67;;
18685;SDS011;9473;52.342;13.110;2023-04-19T00:30:02;5.78;;;2.63;;
18685;SDS011;9473;52.342;13.110;2023-04-19T00:32:29;4.72;;;2.53;;
18685;SDS011;9473;52.342;13.110;2023-04-19T00:34:56;5.55;;;2.30;;
18685;SDS011;9473;52.342;13.110;2023-04-19T00:37:24;9.13;;;3.00;;
18685;SDS011;9473;52.342;13.110;2023-04-19T00:39:51;6.43;;;2.55;;
18685;SDS011;9473;52.342;13.110;2023-04-19T00:42:18;7.32;;;2.45;;
18685;SDS011;9473;52.342;13.110;2023-04-19T00:44:45;3.92;;;2.20;;
18685;SDS011;9473;52.342;13.110;2023-04-19T00:47:12;6.55;;;2.70;;
18685;SDS011;9473;52.342;13.110;2023-04-19T00:49:39;7.63;;;2.30;;
18685;SDS011;9473;52.342;13.110;2023-04-19T00:52:07;6.00;;;2.40;;
18685;SDS011;9473;52.342;13.110;2023-04-19T00:54:35;5.85;;;2.40;;
18685;SDS011;9473;52.342;13.110;2023-04-19T00:57:05;4.63;;;2.35;;
18685;SDS011;9473;52.342;13.110;2023-04-19T00:59:32;7.90;;;2.10;;
18685;SDS011;9473;52.342;13.110;2023-04-19T01:02:00;7.18;;;2.67;;
18685;SDS011;9473;52.342;13.110;2023-04-19T01:04:26;4.75;;;2.38;;
18685;SDS011;9473;52.342;13.110;2023-04-19T01:06:53;5.13;;;2.22;;
18685;SDS011;9473;52.342;13.110;2023-04-19T01:09:21;5.85;;;2.40;;
18685;SDS011;9473;52.342;13.110;2023-04-19T01:11:49;3.53;;;1.90;;
18685;SDS011;9473;52.342;13.110;2023-04-19T01:14:16;3.58;;;1.90;;
18685;SDS011;9473;52.342;13.110;2023-04-19T01:16:43;6.65;;;2.15;;
18685;SDS011;9473;52.342;13.110;2023-04-19T01:19:10;5.35;;;2.20;;
18685;SDS011;9473;52.342;13.110;2023-04-19T01:21:37;4.30;;;2.08;;
18685;SDS011;9473;52.342;13.110;2023-04-19T01:24:05;5.97;;;2.15;;
18685;SDS011;9473;52.342;13.110;2023-04-19T01:26:32;2.55;;;1.63;;
18685;SDS011;9473;52.342;13.110;2023-04-19T01:29:00;6.00;;;1.90;;
18685;SDS011;9473;52.342;13.110;2023-04-19T01:31:26;3.90;;;1.52;;
18685;SDS011;9473;52.342;13.110;2023-04-19T01:33:53;3.25;;;1.80;;
18685;SDS011;9473;52.342;13.110;2023-04-19T01:36:20;4.97;;;1.83;;
18685;SDS011;9473;52.342;13.110;2023-04-19T01:38:48;5.70;;;2.08;;
18685;SDS011;9473;52.342;13.110;2023-04-19T01:41:16;4.00;;;1.70;;
18685;SDS011;9473;52.342;13.110;2023-04-19T01:43:44;4.75;;;1.63;;
18685;SDS011;9473;52.342;13.110;2023-04-19T01:46:11;4.30;;;2.00;;
18685;SDS011;9473;52.342;13.110;2023-04-19T01:48:38;3.90;;;1.85;;
18685;SDS011;9473;52.342;13.110;2023-04-19T01:51:05;2.40;;;1.58;;
18685;SDS011;9473;52.342;13.110;2023-04-19T01:53:32;3.28;;;1.73;;
18685;SDS011;9473;52.342;13.110;2023-04-19T01:55:58;3.00;;;1.70;;
18685;SDS011;9473;52.342;13.110;2023-04-19T01:58:27;3.85;;;1.98;;
18685;SDS011;9473;52.342;13.110;2023-04-19T02:00:54;2.80;;;1.60;;
18685;SDS011;9473;52.342;13.110;2023-04-19T02:03:20;3.17;;;1.88;;
18685;SDS011;9473;52.342;13.110;2023-04-19T02:05:47;4.93;;;1.63;;
18685;SDS011;9473;52.342;13.110;2023-04-19T02:08:14;4.78;;;2.17;;
18685;SDS011;9473;52.342;13.110;2023-04-19T02:10:41;2.92;;;1.67;;
18685;SDS011;9473;52.342;13.110;2023-04-19T02:13:08;3.83;;;1.85;;
18685;SDS011;9473;52.342;13.110;2023-04-19T02:15:36;5.38;;;1.92;;
18685;SDS011;9473;52.342;13.110;2023-04-19T02:18:03;3.35;;;1.80;;
18685;SDS011;9473;52.342;13.110;2023-04-19T02:20:32;5.38;;;1.80;;
18685;SDS011;9473;52.342;13.110;2023-04-19T02:22:58;5.15;;;2.17;;
18685;SDS011;9473;52.342;13.110;2023-04-19T02:25:25;4.53;;;1.98;;
18685;SDS011;9473;52.342;13.110;2023-04-19T02:27:52;3.08;;;1.90;;
18685;SDS011;9473;52.342;13.110;2023-04-19T02:30:19;4.63;;;1.77;;
18685;SDS011;9473;52.342;13.110;2023-04-19T02:32:48;6.45;;;2.10;;
18685;SDS011;9473;52.342;13.110;2023-04-19T02:35:15;3.17;;;2.15;;
18685;SDS011;9473;52.342;13.110;2023-04-19T02:37:42;5.40;;;2.08;;
18685;SDS011;9473;52.342;13.110;2023-04-19T02:40:09;3.58;;;1.98;;
18685;SDS011;9473;52.342;13.110;2023-04-19T02:42:36;3.90;;;1.90;;
18685;SDS011;9473;52.342;13.110;2023-04-19T02:45:03;3.95;;;2.20;;
18685;SDS011;9473;52.342;13.110;2023-04-19T02:47:30;4.22;;;1.67;;
18685;SDS011;9473;52.342;13.110;2023-04-19T02:49:59;4.55;;;2.20;;
18685;SDS011;9473;52.342;13.110;2023-04-19T02:52:26;6.10;;;2.00;;
18685;SDS011;9473;52.342;13.110;2023-04-19T02:54:53;7.28;;;2.00;;
18685;SDS011;9473;52.342;13.110;2023-04-19T02:57:20;6.80;;;2.08;;
18685;SDS011;9473;52.342;13.110;2023-04-19T02:59:47;8.50;;;1.88;;
18685;SDS011;9473;52.342;13.110;2023-04-19T03:02:14;3.75;;;1.90;;
18685;SDS011;9473;52.342;13.110;2023-04-19T03:04:41;4.22;;;2.00;;
18685;SDS011;9473;52.342;13.110;2023-04-19T03:07:09;3.60;;;1.63;;
18685;SDS011;9473;52.342;13.110;2023-04-19T03:09:36;6.20;;;1.90;;
18685;SDS011;9473;52.342;13.110;2023-04-19T03:12:03;4.63;;;1.80;;
18685;SDS011;9473;52.342;13.110;2023-04-19T03:14:30;5.85;;;2.22;;
18685;SDS011;9473;52.342;13.110;2023-04-19T03:16:58;5.43;;;1.95;;
18685;SDS011;9473;52.342;13.110;2023-04-19T03:19:25;4.45;;;1.70;;
18685;SDS011;9473;52.342;13.110;2023-04-19T03:21:52;4.85;;;2.00;;
18685;SDS011;9473;52.342;13.110;2023-04-19T03:24:22;8.00;;;1.95;;
18685;SDS011;9473;52.342;13.110;2023-04-19T03:26:53;6.50;;;1.90;;
18685;SDS011;9473;52.342;13.110;2023-04-19T03:29:19;3.40;;;1.70;;
18685;SDS011;9473;52.342;13.110;2023-04-19T03:31:46;4.40;;;1.65;;
18685;SDS011;9473;52.342;13.110;2023-04-19T03:34:14;3.60;;;1.70;;
18685;SDS011;9473;52.342;13.110;2023-04-19T03:36:40;4.75;;;1.92;;
18685;SDS011;9473;52.342;13.110;2023-04-19T03:39:07;3.17;;;1.80;;
18685;SDS011;9473;52.342;13.110;2023-04-19T03:41:36;4.53;;;1.73;;
18685;SDS011;9473;52.342;13.110;2023-04-19T03:44:03;5.50;;;1.70;;
18685;SDS011;9473;52.342;13.110;2023-04-19T03:46:30;3.40;;;1.88;;
18685;SDS011;9473;52.342;13.110;2023-04-19T03:48:57;5.43;;;1.88;;
18685;SDS011;9473;52.342;13.110;2023-04-19T03:51:24;6.07;;;2.15;;
18685;SDS011;9473;52.342;13.110;2023-04-19T03:53:51;3.05;;;1.73;;
18685;SDS011;9473;52.342;13.110;2023-04-19T03:56:18;7.45;;;1.90;;
18685;SDS011;9473;52.342;13.110;2023-04-19T03:58:46;3.80;;;1.52;;
18685;SDS011;9473;52.342;13.110;2023-04-19T04:01:16;3.53;;;1.95;;
18685;SDS011;9473;52.342;13.110;2023-04-19T04:03:43;6.13;;;2.30;;
18685;SDS011;9473;52.342;13.110;2023-04-19T04:06:10;5.32;;;1.75;;
18685;SDS011;9473;52.342;13.110;2023-04-19T04:08:37;3.90;;;1.95;;
18685;SDS011;9473;52.342;13.110;2023-04-19T04:11:04;3.47;;;1.70;;
18685;SDS011;9473;52.342;13.110;2023-04-19T04:13:31;5.50;;;1.75;;
18685;SDS011;9473;52.342;13.110;2023-04-19T04:15:59;5.90;;;1.90;;
18685;SDS011;9473;52.342;13.110;2023-04-19T04:18:26;4.63;;;1.88;;
18685;SDS011;9473;52.342;13.110;2023-04-19T04:20:53;2.75;;;1.60;;
18685;SDS011;9473;52.342;13.110;2023-04-19T04:23:20;3.38;;;2.00;;
18685;SDS011;9473;52.342;13.110;2023-04-19T04:25:54;4.55;;;1.80;;
18685;SDS011;9473;52.342;13.110;2023-04-19T04:28:22;5.25;;;2.10;;
18685;SDS011;9473;52.342;13.110;2023-04-19T04:30:48;4.07;;;1.60;;
18685;SDS011;9473;52.342;13.110;2023-04-19T04:33:17;3.88;;;1.88;;
18685;SDS011;9473;52.342;13.110;2023-04-19T04:35:44;5.65;;;1.95;;
18685;SDS011;9473;52.342;13.110;2023-04-19T04:38:11;4.70;;;2.10;;
18685;SDS011;9473;52.342;13.110;2023-04-19T04:40:38;4.95;;;2.13;;
18685;SDS011;9473;52.342;13.110;2023-04-19T04:43:05;6.38;;;2.00;;
18685;SDS011;9473;52.342;13.110;2023-04-19T04:45:32;5.63;;;2.15;;
18685;SDS011;9473;52.342;13.110;2023-04-19T04:47:59;5.93;;;1.80;;
18685;SDS011;9473;52.342;13.110;2023-04-19T04:50:27;5.07;;;2.33;;
18685;SDS011;9473;52.342;13.110;2023-04-19T04:52:54;3.92;;;1.80;;
18685;SDS011;9473;52.342;13.110;2023-04-19T04:55:21;6.97;;;2.22;;
18685;SDS011;9473;52.342;13.110;2023-04-19T04:57:48;5.10;;;1.83;;
18685;SDS011;9473;52.342;13.110;2023-04-19T05:00:15;5.78;;;1.77;;
18685;SDS011;9473;52.342;13.110;2023-04-19T05:02:42;7.40;;;2.20;;
18685;SDS011;9473;52.342;13.110;2023-04-19T05:05:09;8.07;;;1.80;;
18685;SDS011;9473;52.342;13.110;2023-04-19T05:07:37;4.53;;;1.52;;
18685;SDS011;9473;52.342;13.110;2023-04-19T05:10:05;3.90;;;1.60;;
18685;SDS011;9473;52.342;13.110;2023-04-19T05:12:33;4.18;;;1.83;;
18685;SDS011;9473;52.342;13.110;2023-04-19T05:15:00;6.05;;;1.90;;
18685;SDS011;9473;52.342;13.110;2023-04-19T05:17:26;6.60;;;1.70;;
18685;SDS011;9473;52.342;13.110;2023-04-19T05:19:53;5.40;;;1.92;;
18685;SDS011;9473;52.342;13.110;2023-04-19T05:22:20;4.35;;;1.98;;
18685;SDS011;9473;52.342;13.110;2023-04-19T05:24:48;6.55;;;2.00;;
18685;SDS011;9473;52.342;13.110;2023-04-19T05:27:15;3.30;;;1.67;;
18685;SDS011;9473;52.342;13.110;2023-04-19T05:29:42;4.22;;;2.05;;
18685;SDS011;9473;52.342;13.110;2023-04-19T05:32:09;5.10;;;1.80;;
18685;SDS011;9473;52.342;13.110;2023-04-19T05:34:36;3.88;;;1.83;;
18685;SDS011;9473;52.342;13.110;2023-04-19T05:37:03;3.53;;;1.90;;
18685;SDS011;9473;52.342;13.110;2023-04-19T05:39:31;3.92;;;1.60;;
18685;SDS011;9473;52.342;13.110;2023-04-19T05:41:59;3.08;;;1.55;;
18685;SDS011;9473;52.342;13.110;2023-04-19T05:44:26;3.72;;;1.40;;
18685;SDS011;9473;52.342;13.110;2023-04-19T05:46:53;3.50;;;1.65;;
18685;SDS011;9473;52.342;13.110;2023-04-19T05:49:20;3.20;;;1.60;;
18685;SDS011;9473;52.342;13.110;2023-04-19T05:51:47;3.25;;;2.00;;
18685;SDS011;9473;52.342;13.110;2023-04-19T05:54:15;7.22;;;1.83;;
18685;SDS011;9473;52.342;13.110;2023-04-19T05:56:41;4.72;;;1.63;;
18685;SDS011;9473;52.342;13.110;2023-04-19T05:59:10;5.60;;;1.75;;
18685;SDS011;9473;52.342;13.110;2023-04-19T06:01:37;3.10;;;1.40;;
18685;SDS011;9473;52.342;13.110;2023-04-19T06:04:04;5.03;;;1.85;;
18685;SDS011;9473;52.342;13.110;2023-04-19T06:06:31;6.70;;;1.65;;
18685;SDS011;9473;52.342;13.110;2023-04-19T06:08:58;3.08;;;1.85;;
18685;SDS011;9473;52.342;13.110;2023-04-19T06:11:25;5.25;;;2.08;;
18685;SDS011;9473;52.342;13.110;2023-04-19T06:13:52;5.20;;;1.77;;
18685;SDS011;9473;52.342;13.110;2023-04-19T06:16:20;7.22;;;2.03;;
18685;SDS011;9473;52.342;13.110;2023-04-19T06:18:47;4.78;;;1.80;;
18685;SDS011;9473;52.342;13.110;2023-04-19T06:21:15;3.72;;;1.80;;
18685;SDS011;9473;52.342;13.110;2023-04-19T06:23:42;4.20;;;1.45;;
18685;SDS011;9473;52.342;13.110;2023-04-19T06:26:09;7.10;;;1.80;;
18685;SDS011;9473;52.342;13.110;2023-04-19T06:28:36;4.13;;;1.50;;
18685;SDS011;9473;52.342;13.110;2023-04-19T06:31:03;5.95;;;1.67;;
18685;SDS011;9473;52.342;13.110;2023-04-19T06:33:32;3.88;;;1.55;;
18685;SDS011;9473;52.342;13.110;2023-04-19T06:35:59;5.57;;;1.60;;
18685;SDS011;9473;52.342;13.110;2023-04-19T06:38:26;6.60;;;1.58;;
18685;SDS011;9473;52.342;13.110;2023-04-19T06:40:52;6.10;;;1.63;;
18685;SDS011;9473;52.342;13.110;2023-04-19T06:43:19;8.57;;;1.60;;
18685;SDS011;9473;52.342;13.110;2023-04-19T06:45:46;3.17;;;1.60;;
18685;SDS011;9473;52.342;13.110;2023-04-19T06:48:13;3.10;;;1.23;;
18685;SDS011;9473;52.342;13.110;2023-04-19T06:50:41;5.05;;;1.50;;
18685;SDS011;9473;52.342;13.110;2023-04-19T06:53:08;4.63;;;1.63;;
18685;SDS011;9473;52.342;13.110;2023-04-19T06:55:35;3.10;;;1.40;;
18685;SDS011;9473;52.342;13.110;2023-04-19T06:58:02;4.88;;;1.52;;
18685;SDS011;9473;52.342;13.110;2023-04-19T07:00:31;4.60;;;1.85;;
18685;SDS011;9473;52.342;13.110;2023-04-19T07:02:58;2.50;;;1.30;;
18685;SDS011;9473;52.342;13.110;2023-04-19T07:05:25;3.40;;;1.35;;
18685;SDS011;9473;52.342;13.110;2023-04-19T07:07:54;3.60;;;1.60;;
18685;SDS011;9473;52.342;13.110;2023-04-19T07:10:20;2.42;;;1.50;;
18685;SDS011;9473;52.342;13.110;2023-04-19T07:12:47;6.28;;;1.48;;
18685;SDS011;9473;52.342;13.110;2023-04-19T07:15:14;6.47;;;1.67;;
18685;SDS011;9473;52.342;13.110;2023-04-19T07:17:41;5.80;;;1.67;;
18685;SDS011;9473;52.342;13.110;2023-04-19T07:20:08;5.55;;;1.50;;
18685;SDS011;9473;52.342;13.110;2023-04-19T07:22:35;4.88;;;1.58;;
18685;SDS011;9473;52.342;13.110;2023-04-19T07:25:04;4.78;;;1.40;;
18685;SDS011;9473;52.342;13.110;2023-04-19T07:27:31;3.10;;;1.60;;
18685;SDS011;9473;52.342;13.110;2023-04-19T07:29:58;3.42;;;1.63;;
18685;SDS011;9473;52.342;13.110;2023-04-19T07:32:25;2.97;;;1.27;;
18685;SDS011;9473;52.342;13.110;2023-04-19T07:34:52;4.47;;;1.60;;
18685;SDS011;9473;52.342;13.110;2023-04-19T07:37:19;5.25;;;1.60;;
18685;SDS011;9473;52.342;13.110;2023-04-19T07:39:46;2.47;;;1.25;;
18685;SDS011;9473;52.342;13.110;2023-04-19T07:42:14;4.63;;;1.52;;
18685;SDS011;9473;52.342;13.110;2023-04-19T07:44:41;5.18;;;1.50;;
18685;SDS011;9473;52.342;13.110;2023-04-19T07:47:08;2.70;;;1.38;;
18685;SDS011;9473;52.342;13.110;2023-04-19T07:49:35;5.35;;;1.40;;
18685;SDS011;9473;52.342;13.110;2023-04-19T07:52:05;3.28;;;1.60;;
18685;SDS011;9473;52.342;13.110;2023-04-19T07:54:32;5.85;;;1.90;;
18685;SDS011;9473;52.342;13.110;2023-04-19T07:56:59;4.43;;;1.63;;
18685;SDS011;9473;52.342;13.110;2023-04-19T07:59:28;2.70;;;1.35;;
18685;SDS011;9473;52.342;13.110;2023-04-19T08:01:57;2.97;;;1.10;;
18685;SDS011;9473;52.342;13.110;2023-04-19T08:04:24;5.43;;;1.10;;
18685;SDS011;9473;52.342;13.110;2023-04-19T08:06:51;4.05;;;1.63;;
18685;SDS011;9473;52.342;13.110;2023-04-19T08:09:18;2.00;;;1.08;;
18685;SDS011;9473;52.342;13.110;2023-04-19T08:11:45;3.92;;;1.55;;
18685;SDS011;9473;52.342;13.110;2023-04-19T08:14:12;2.20;;;1.30;;
18685;SDS011;9473;52.342;13.110;2023-04-19T08:16:40;8.57;;;1.63;;
18685;SDS011;9473;52.342;13.110;2023-04-19T08:19:07;5.05;;;2.10;;
18685;SDS011;9473;52.342;13.110;2023-04-19T08:21:34;4.88;;;1.48;;
18685;SDS011;9473;52.342;13.110;2023-04-19T08:24:01;2.42;;;1.23;;
18685;SDS011;9473;52.342;13.110;2023-04-19T08:26:28;4.10;;;1.30;;
18685;SDS011;9473;52.342;13.110;2023-04-19T08:28:55;5.57;;;1.50;;
18685;SDS011;9473;52.342;13.110;2023-04-19T08:31:22;3.10;;;1.35;;
18685;SDS011;9473;52.342;13.110;2023-04-19T08:33:50;2.75;;;1.38;;
18685;SDS011;9473;52.342;13.110;2023-04-19T08:36:17;4.65;;;1.50;;
18685;SDS011;9473;52.342;13.110;2023-04-19T08:38:44;3.97;;;1.60;;
18685;SDS011;9473;52.342;13.110;2023-04-19T08:41:12;5.35;;;1.60;;
18685;SDS011;9473;52.342;13.110;2023-04-19T08:43:39;3.60;;;1.40;;
18685;SDS011;9473;52.342;13.110;2023-04-19T08:46:09;5.75;;;1.77;;
18685;SDS011;9473;52.342;13.110;2023-04-19T08:48:37;5.70;;;1.50;;
18685;SDS011;9473;52.342;13.110;2023-04-19T08:51:07;3.75;;;1.50;;
18685;SDS011;9473;52.342;13.110;2023-04-19T08:53:34;4.95;;;1.60;;
18685;SDS011;9473;52.342;13.110;2023-04-19T08:56:01;4.13;;;1.60;;
18685;SDS011;9473;52.342;13.110;2023-04-19T08:58:28;3.55;;;1.42;;
18685;SDS011;9473;52.342;13.110;2023-04-19T09:00:57;5.90;;;1.70;;
18685;SDS011;9473;52.342;13.110;2023-04-19T09:03:24;3.83;;;1.70;;
18685;SDS011;9473;52.342;13.110;2023-04-19T09:05:51;5.10;;;1.83;;
18685;SDS011;9473;52.342;13.110;2023-04-19T09:08:23;2.92;;;1.65;;
18685;SDS011;9473;52.342;13.110;2023-04-19T09:10:54;3.20;;;1.80;;
18685;SDS011;9473;52.342;13.110;2023-04-19T09:13:21;2.33;;;1.77;;
18685;SDS011;9473;52.342;13.110;2023-04-19T09:15:49;5.45;;;2.10;;
18685;SDS011;9473;52.342;13.110;2023-04-19T09:18:17;2.88;;;1.20;;
18685;SDS011;9473;52.342;13.110;2023-04-19T09:20:44;3.83;;;1.70;;
18685;SDS011;9473;52.342;13.110;2023-04-19T09:23:12;5.78;;;1.98;;
18685;SDS011;9473;52.342;13.110;2023-04-19T09:25:40;4.10;;;1.80;;
18685;SDS011;9473;52.342;13.110;2023-04-19T09:28:16;4.55;;;1.80;;
18685;SDS011;9473;52.342;13.110;2023-04-19T09:30:43;3.97;;;1.52;;
18685;SDS011;9473;52.342;13.110;2023-04-19T09:33:10;3.22;;;1.52;;
18685;SDS011;9473;52.342;13.110;2023-04-19T09:35:38;5.25;;;1.70;;
18685;SDS011;9473;52.342;13.110;2023-04-19T09:38:06;3.95;;;1.88;;
18685;SDS011;9473;52.342;13.110;2023-04-19T09:40:33;5.43;;;1.77;;
18685;SDS011;9473;52.342;13.110;2023-04-19T09:43:02;5.18;;;1.73;;
18685;SDS011;9473;52.342;13.110;2023-04-19T09:45:37;4.22;;;2.00;;
18685;SDS011;9473;52.342;13.110;2023-04-19T09:48:05;4.63;;;1.90;;
18685;SDS011;9473;52.342;13.110;2023-04-19T09:50:32;4.40;;;1.90;;
18685;SDS011;9473;52.342;13.110;2023-04-19T09:53:00;5.25;;;2.08;;
18685;SDS011;9473;52.342;13.110;2023-04-19T09:55:27;2.60;;;1.17;;
18685;SDS011;9473;52.342;13.110;2023-04-19T09:57:54;3.83;;;1.60;;
18685;SDS011;9473;52.342;13.110;2023-04-19T10:00:23;6.13;;;1.90;;
18685;SDS011;9473;52.342;13.110;2023-04-19T10:02:50;6.93;;;1.80;;
18685;SDS011;9473;52.342;13.110;2023-04-19T10:05:21;3.22;;;1.73;;
18685;SDS011;9473;52.342;13.110;2023-04-19T10:07:49;3.75;;;1.77;;
18685;SDS011;9473;52.342;13.110;2023-04-19T10:10:16;4.18;;;2.00;;
18685;SDS011;9473;52.342;13.110;2023-04-19T10:12:43;8.23;;;2.35;;
18685;SDS011;9473;52.342;13.110;2023-04-19T10:15:12;4.28;;;2.17;;
18685;SDS011;9473;52.342;13.110;2023-04-19T10:17:40;4.68;;;1.30;;
18685;SDS011;9473;52.342;13.110;2023-04-19T10:20:08;7.25;;;1.98;;
18685;SDS011;9473;52.342;13.110;2023-04-19T10:22:36;3.50;;;1.92;;
18685;SDS011;9473;52.342;13.110;2023-04-19T10:25:07;2.85;;;1.60;;
18685;SDS011;9473;52.342;13.110;2023-04-19T10:27:34;7.75;;;2.25;;
18685;SDS011;9473;52.342;13.110;2023-04-19T10:30:02;5.70;;;2.00;;
18685;SDS011;9473;52.342;13.110;2023-04-19T10:32:36;8.93;;;2.20;;
18685;SDS011;9473;52.342;13.110;2023-04-19T10:35:07;7.22;;;1.90;;
18685;SDS011;9473;52.342;13.110;2023-04-19T10:37:37;2.70;;;1.63;;
18685;SDS011;9473;52.342;13.110;2023-04-19T10:40:05;6.38;;;1.90;;
18685;SDS011;9473;52.342;13.110;2023-04-19T10:45:30;7.68;;;2.10;;
18685;SDS011;9473;52.342;13.110;2023-04-19T10:47:57;3.30;;;1.73;;
18685;SDS011;9473;52.342;13.110;2023-04-19T10:50:26;6.05;;;1.92;;
18685;SDS011;9473;52.342;13.110;2023-04-19T10:52:53;5.00;;;2.10;;
18685;SDS011;9473;52.342;13.110;2023-04-19T10:55:31;5.88;;;2.08;;
18685;SDS011;9473;52.342;13.110;2023-04-19T10:58:02;4.82;;;2.17;;
18685;SDS011;9473;52.342;13.110;2023-04-19T11:00:29;7.65;;;2.20;;
18685;SDS011;9473;52.342;13.110;2023-04-19T11:02:57;3.92;;;2.00;;
18685;SDS011;9473;52.342;13.110;2023-04-19T11:05:25;6.03;;;2.17;;
18685;SDS011;9473;52.342;13.110;2023-04-19T11:07:55;5.85;;;2.03;;
18685;SDS011;9473;52.342;13.110;2023-04-19T11:10:31;4.50;;;1.92;;
18685;SDS011;9473;52.342;13.110;2023-04-19T11:12:59;6.30;;;2.67;;
18685;SDS011;9473;52.342;13.110;2023-04-19T11:15:26;4.38;;;2.30;;
18685;SDS011;9473;52.342;13.110;2023-04-19T11:17:53;5.20;;;2.22;;
18685;SDS011;9473;52.342;13.110;2023-04-19T11:20:27;3.85;;;1.85;;
18685;SDS011;9473;52.342;13.110;2023-04-19T11:22:54;4.25;;;2.17;;
18685;SDS011;9473;52.342;13.110;2023-04-19T11:25:24;8.27;;;2.60;;
18685;SDS011;9473;52.342;13.110;2023-04-19T11:27:52;4.65;;;2.38;;
18685;SDS011;9473;52.342;13.110;2023-04-19T11:30:20;6.40;;;2.08;;
18685;SDS011;9473;52.342;13.110;2023-04-19T11:32:48;8.18;;;2.33;;
18685;SDS011;9473;52.342;13.110;2023-04-19T11:35:19;6.20;;;2.35;;
18685;SDS011;9473;52.342;13.110;2023-04-19T11:37:47;6.32;;;2.50;;
18685;SDS011;9473;52.342;13.110;2023-04-19T11:40:22;5.53;;;2.50;;
18685;SDS011;9473;52.342;13.110;2023-04-19T11:42:57;3.28;;;1.88;;
18685;SDS011;9473;52.342;13.110;2023-04-19T11:45:25;5.60;;;2.45;;
18685;SDS011;9473;52.342;13.110;2023-04-19T11:47:58;5.90;;;2.42;;
18685;SDS011;9473;52.342;13.110;2023-04-19T11:50:34;5.70;;;2.28;;
18685;SDS011;9473;52.342;13.110;2023-04-19T11:53:09;4.07;;;2.22;;
18685;SDS011;9473;52.342;13.110;2023-04-19T11:55:37;4.25;;;2.28;;
18685;SDS011;9473;52.342;13.110;2023-04-19T11:58:30;5.40;;;2.40;;
18685;SDS011;9473;52.342;13.110;2023-04-19T12:01:31;6.35;;;2.10;;
18685;SDS011;9473;52.342;13.110;2023-04-19T12:04:22;7.28;;;2.30;;
18685;SDS011;9473;52.342;13.110;2023-04-19T12:07:03;7.75;;;2.20;;
18685;SDS011;9473;52.342;13.110;2023-04-19T12:09:33;4.03;;;1.92;;
18685;SDS011;9473;52.342;13.110;2023-04-19T12:12:00;9.07;;;2.40;;
18685;SDS011;9473;52.342;13.110;2023-04-19T12:14:50;6.47;;;2.92;;
18685;SDS011;9473;52.342;13.110;2023-04-19T12:17:54;3.60;;;2.03;;
18685;SDS011;9473;52.342;13.110;2023-04-19T12:20:30;3.47;;;2.20;;
18685;SDS011;9473;52.342;13.110;2023-04-19T12:23:13;5.85;;;2.25;;
18685;SDS011;9473;52.342;13.110;2023-04-19T12:25:51;3.70;;;2.35;;
18685;SDS011;9473;52.342;13.110;2023-04-19T12:28:18;7.07;;;2.42;;
18685;SDS011;9473;52.342;13.110;2023-04-19T12:30:45;3.97;;;2.28;;
18685;SDS011;9473;52.342;13.110;2023-04-19T12:33:13;5.40;;;2.15;;
18685;SDS011;9473;52.342;13.110;2023-04-19T12:35:39;6.82;;;2.60;;
18685;SDS011;9473;52.342;13.110;2023-04-19T12:38:08;4.90;;;2.42;;
18685;SDS011;9473;52.342;13.110;2023-04-19T12:41:15;4.97;;;2.53;;
18685;SDS011;9473;52.342;13.110;2023-04-19T12:44:05;10.63;;;2.35;;
18685;SDS011;9473;52.342;13.110;2023-04-19T12:47:00;4.35;;;1.90;;
18685;SDS011;9473;52.342;13.110;2023-04-19T12:49:42;4.93;;;2.38;;
18685;SDS011;9473;52.342;13.110;2023-04-19T12:52:09;3.75;;;2.08;;
18685;SDS011;9473;52.342;13.110;2023-04-19T12:54:35;6.25;;;2.25;;
18685;SDS011;9473;52.342;13.110;2023-04-19T12:57:13;7.85;;;2.10;;
18685;SDS011;9473;52.342;13.110;2023-04-19T13:00:27;3.78;;;1.85;;
18685;SDS011;9473;52.342;13.110;2023-04-19T13:02:56;6.15;;;2.03;;
18685;SDS011;9473;52.342;13.110;2023-04-19T13:05:28;10.95;;;2.63;;
18685;SDS011;9473;52.342;13.110;2023-04-19T13:08:07;4.88;;;1.90;;
18685;SDS011;9473;52.342;13.110;2023-04-19T13:11:11;4.10;;;2.60;;
18685;SDS011;9473;52.342;13.110;2023-04-19T13:13:40;4.88;;;2.28;;
18685;SDS011;9473;52.342;13.110;2023-04-19T13:16:25;5.75;;;2.63;;
18685;SDS011;9473;52.342;13.110;2023-04-19T13:19:05;5.47;;;2.35;;
18685;SDS011;9473;52.342;13.110;2023-04-19T13:21:50;8.27;;;3.03;;
18685;SDS011;9473;52.342;13.110;2023-04-19T13:24:20;5.60;;;2.63;;
18685;SDS011;9473;52.342;13.110;2023-04-19T13:27:12;6.32;;;2.70;;
18685;SDS011;9473;52.342;13.110;2023-04-19T13:29:46;4.97;;;2.25;;
18685;SDS011;9473;52.342;13.110;2023-04-19T13:32:22;9.07;;;3.13;;
18685;SDS011;9473;52.342;13.110;2023-04-19T13:35:17;6.55;;;2.65;;
18685;SDS011;9473;52.342;13.110;2023-04-19T13:37:46;6.28;;;2.45;;
18685;SDS011;9473;52.342;13.110;2023-04-19T13:40:58;6.85;;;2.50;;
18685;SDS011;9473;52.342;13.110;2023-04-19T13:43:39;7.28;;;2.75;;
18685;SDS011;9473;52.342;13.110;2023-04-19T13:46:32;9.13;;;3.10;;
18685;SDS011;9473;52.342;13.110;2023-04-19T13:49:22;7.65;;;2.55;;
18685;SDS011;9473;52.342;13.110;2023-04-19T13:52:21;6.93;;;2.92;;
18685;SDS011;9473;52.342;13.110;2023-04-19T13:55:19;4.78;;;2.65;;
18685;SDS011;9473;52.342;13.110;2023-04-19T13:58:33;6.50;;;2.60;;
18685;SDS011;9473;52.342;13.110;2023-04-19T14:01:35;5.05;;;2.42;;
18685;SDS011;9473;52.342;13.110;2023-04-19T14:04:48;7.85;;;2.50;;
18685;SDS011;9473;52.342;13.110;2023-04-19T14:07:42;6.63;;;2.40;;
18685;SDS011;9473;52.342;13.110;2023-04-19T14:10:11;6.28;;;2.40;;
18685;SDS011;9473;52.342;13.110;2023-04-19T14:13:14;6.55;;;2.50;;
18685;SDS011;9473;52.342;13.110;2023-04-19T14:16:26;6.40;;;2.47;;
18685;SDS011;9473;52.342;13.110;2023-04-19T14:19:39;6.47;;;2.60;;
18685;SDS011;9473;52.342;13.110;2023-04-19T14:22:36;7.68;;;2.47;;
18685;SDS011;9473;52.342;13.110;2023-04-19T14:25:29;9.43;;;3.00;;
18685;SDS011;9473;52.342;13.110;2023-04-19T14:27:57;8.48;;;2.35;;
18685;SDS011;9473;52.342;13.110;2023-04-19T14:30:29;8.20;;;2.80;;
18685;SDS011;9473;52.342;13.110;2023-04-19T14:32:58;5.63;;;2.22;;
18685;SDS011;9473;52.342;13.110;2023-04-19T14:35:28;5.13;;;2.40;;
18685;SDS011;9473;52.342;13.110;2023-04-19T14:38:02;12.02;;;2.10;;
18685;SDS011;9473;52.342;13.110;2023-04-19T14:40:29;5.95;;;2.42;;
18685;SDS011;9473;52.342;13.110;2023-04-19T14:42:56;4.22;;;2.20;;
18685;SDS011;9473;52.342;13.110;2023-04-19T14:45:23;4.72;;;2.13;;
18685;SDS011;9473;52.342;13.110;2023-04-19T14:47:57;6.85;;;2.50;;
18685;SDS011;9473;52.342;13.110;2023-04-19T14:50:24;3.78;;;2.28;;
18685;SDS011;9473;52.342;13.110;2023-04-19T14:52:55;4.55;;;2.17;;
18685;SDS011;9473;52.342;13.110;2023-04-19T14:55:47;4.32;;;2.25;;
18685;SDS011;9473;52.342;13.110;2023-04-19T14:58:16;3.63;;;2.40;;
18685;SDS011;9473;52.342;13.110;2023-04-19T15:00:50;7.80;;;2.70;;
18685;SDS011;9473;52.342;13.110;2023-04-19T15:03:47;6.00;;;2.40;;
18685;SDS011;9473;52.342;13.110;2023-04-19T15:06:25;8.48;;;2.70;;
18685;SDS011;9473;52.342;13.110;2023-04-19T15:08:58;7.30;;;2.40;;
18685;SDS011;9473;52.342;13.110;2023-04-19T15:11:40;6.53;;;2.40;;